createdAt,value
2023-04-07T05:08:07.487Z,100945.25
2023-04-07T05:11:10.020Z,100941.72
2023-04-07T05:14:12.566Z,100939.91
2023-04-07T05:17:15.013Z,100941.56
2023-04-07T05:20:17.857Z,100947.63
2023-04-07T05:23:21.712Z,100951.03
2023-04-07T05:26:24.197Z,100956.16
2023-04-07T05:29:26.771Z,100955.25
2023-04-07T05:32:29.947Z,100955.19
2023-04-07T05:35:32.493Z,100949.09
2023-04-07T05:38:36.383Z,100957.63
2023-04-07T05:41:38.861Z,100954.13
2023-04-07T05:44:41.736Z,100961.00
2023-04-07T05:47:44.325Z,100951.44
2023-04-07T05:50:46.857Z,100952.25
2023-04-07T05:53:50.999Z,100957.44
2023-04-07T05:56:53.590Z,100960.97
2023-04-07T05:59:56.270Z,100965.25
2023-04-07T06:02:58.832Z,100960.06
2023-04-07T06:06:01.542Z,100956.63
2023-04-07T06:09:06.920Z,100952.25
2023-04-07T06:12:12.277Z,100958.31
2023-04-07T06:15:14.793Z,100953.94
2023-04-07T06:18:17.272Z,100960.72
2023-04-07T06:21:19.753Z,100958.09
2023-04-07T06:24:25.226Z,100965.84
2023-04-07T06:27:27.828Z,100961.47
2023-04-07T06:30:30.556Z,100969.22
2023-04-07T06:33:33.136Z,100963.19
2023-04-07T06:36:35.882Z,100968.44
2023-04-07T06:39:39.811Z,100964.84
2023-04-07T06:42:42.281Z,100972.50
2023-04-07T06:45:44.904Z,100963.78
2023-04-07T06:48:47.614Z,100966.44
2023-04-07T06:51:50.077Z,100963.03
2023-04-07T06:54:53.881Z,100971.69
2023-04-07T06:57:56.438Z,100966.50
2023-04-07T07:00:58.975Z,100967.38
2023-04-07T07:04:01.787Z,100959.44
2023-04-07T07:07:04.350Z,100962.91
2023-04-07T07:10:10.437Z,100969.66
2023-04-07T07:13:12.937Z,100973.91
2023-04-07T07:16:15.669Z,100975.78
2023-04-07T07:19:18.249Z,100974.78
2023-04-07T07:22:20.762Z,100979.09
2023-04-07T07:25:26.813Z,100985.84
2023-04-07T07:28:29.866Z,100990.00
2023-04-07T07:31:32.474Z,100981.13
2023-04-07T07:34:35.069Z,100985.69
2023-04-07T07:37:37.583Z,100989.09
2023-04-07T07:40:41.482Z,100990.22
2023-04-07T07:43:44.018Z,100985.00
2023-04-07T07:46:46.792Z,100999.72
2023-04-07T07:49:49.598Z,100997.88
2023-04-07T07:52:52.087Z,101000.25
2023-04-07T07:55:56.875Z,101002.72
2023-04-07T07:58:59.347Z,101000.97
2023-04-07T08:02:02.003Z,101008.94
2023-04-07T08:05:04.854Z,101006.34
2023-04-07T08:08:07.417Z,101010.44
2023-04-07T08:11:11.400Z,101002.44
2023-04-07T08:14:13.973Z,101004.44
2023-04-07T08:17:16.859Z,101007.88
2023-04-07T08:20:19.630Z,101006.06
2023-04-07T08:23:22.223Z,101008.09
2023-04-07T08:26:25.994Z,101007.22
2023-04-07T08:29:29.971Z,101010.72
2023-04-07T08:32:40.033Z,101007.22
2023-04-07T08:35:42.554Z,101010.63
2023-04-07T08:38:45.142Z,101011.38
2023-04-07T08:41:51.280Z,101015.69
2023-04-07T08:44:55.153Z,101007.72
2023-04-07T08:48:00.488Z,101003.16
2023-04-07T08:51:06.754Z,100997.94
2023-04-07T08:54:11.899Z,101003.06
2023-04-07T08:57:18.010Z,101006.47
2023-04-07T09:00:20.992Z,101002.22
2023-04-07T09:03:24.758Z,101005.84
2023-04-07T09:06:27.967Z,100997.09
2023-04-07T09:09:30.847Z,100996.91
2023-04-07T09:12:35.414Z,101000.41
2023-04-07T09:15:38.905Z,100997.63
2023-04-07T09:18:42.693Z,100995.00
2023-04-07T09:21:49.742Z,100993.25
2023-04-07T09:24:52.206Z,100994.22
2023-04-07T09:27:57.489Z,100997.69
2023-04-07T09:30:59.941Z,100998.53
2023-04-07T09:34:02.542Z,101002.88
2023-04-07T09:37:06.619Z,100999.47
2023-04-07T09:40:10.140Z,100998.69
2023-04-07T09:43:18.678Z,100992.63
2023-04-07T09:46:21.199Z,100988.34
2023-04-07T09:49:25.327Z,100981.28
2023-04-07T09:52:51.731Z,100976.19
2023-04-07T09:55:54.652Z,100970.91
2023-04-07T09:58:58.781Z,100970.78
2023-04-07T10:02:01.905Z,100967.44
2023-04-07T10:05:05.434Z,100966.38
2023-04-07T10:08:08.024Z,100965.47
2023-04-07T10:11:11.488Z,100964.63
2023-04-07T10:14:16.810Z,100961.91
2023-04-07T10:17:20.724Z,100960.28
2023-04-07T10:20:24.431Z,100960.31
2023-04-07T10:23:38.474Z,100955.06
2023-04-07T10:26:41.876Z,100952.50
2023-04-07T10:29:49.506Z,100955.94
2023-04-07T10:32:54.302Z,100947.91
2023-04-07T10:36:05.043Z,100942.50
2023-04-07T10:39:24.140Z,100943.34
2023-04-07T10:42:46.379Z,100939.84
2023-04-07T10:45:59.385Z,100938.75
2023-04-07T10:49:09.820Z,100937.72
2023-04-07T10:52:25.317Z,100933.44
2023-04-07T10:55:33.550Z,100943.06
2023-04-07T10:58:37.376Z,100925.38
2023-04-07T11:01:41.297Z,100934.06
2023-04-07T11:04:46.063Z,100935.78
2023-04-07T11:07:55.291Z,100935.94
2023-04-07T11:10:57.839Z,100928.72
2023-04-07T11:14:00.518Z,100927.75
2023-04-07T11:17:04.879Z,100928.59
2023-04-07T11:20:08.930Z,100924.22
2023-04-07T11:23:12.193Z,100925.78
2023-04-07T11:26:16.362Z,100931.13
2023-04-07T11:29:29.247Z,100927.44
2023-04-07T11:32:33.154Z,100931.81
2023-04-07T11:35:36.740Z,100927.81
2023-04-07T11:38:39.891Z,100931.22
2023-04-07T11:41:47.934Z,100930.34
2023-04-07T11:44:50.554Z,100920.88
2023-04-07T11:47:54.343Z,100921.44
2023-04-07T11:50:57.037Z,100918.78
2023-04-07T11:53:59.523Z,100915.25
2023-04-07T11:57:02.048Z,100911.69
2023-04-07T12:00:08.066Z,100923.81
2023-04-07T12:03:14.705Z,100922.03
2023-04-07T12:06:29.081Z,100912.56
2023-04-07T12:09:35.921Z,100920.19
2023-04-07T12:12:38.413Z,100922.91
2023-04-07T12:15:41.066Z,100928.00
2023-04-07T12:18:44.883Z,100914.97
2023-04-07T12:21:47.668Z,100913.16
2023-04-07T12:24:50.325Z,100912.88
2023-04-07T12:27:52.824Z,100913.75
2023-04-07T12:30:55.444Z,100921.41
2023-04-07T12:33:59.613Z,100916.81
2023-04-07T12:37:02.064Z,100924.41
2023-04-07T12:40:05.572Z,100919.88
2023-04-07T12:43:08.386Z,100929.69
2023-04-07T12:46:10.912Z,100920.91
2023-04-07T12:49:14.712Z,100928.75
2023-04-07T12:52:17.160Z,100931.50
2023-04-07T12:55:19.678Z,100931.56
2023-04-07T12:58:22.131Z,100922.75
2023-04-07T13:01:24.632Z,100930.59
2023-04-07T13:04:30.730Z,100925.22
2023-04-07T13:07:35.058Z,100924.31
2023-04-07T13:10:37.648Z,100926.84
2023-04-07T13:13:40.097Z,100929.13
2023-04-07T13:16:42.671Z,100933.31
2023-04-07T13:19:47.542Z,100940.81
2023-04-07T13:23:02.778Z,100945.44
2023-04-07T13:26:08.327Z,100943.13
2023-04-07T13:29:10.856Z,100940.56
2023-04-07T13:32:14.873Z,100940.66
2023-04-07T13:35:18.960Z,100944.78
2023-04-07T13:38:21.414Z,100944.78
2023-04-07T13:41:24.023Z,100949.06
2023-04-07T13:44:27.281Z,100937.72
2023-04-07T13:47:33.979Z,100936.06
2023-04-07T13:50:39.260Z,100942.19
2023-04-07T13:53:41.724Z,100942.16
2023-04-07T13:56:44.162Z,100946.25
2023-04-07T13:59:46.667Z,100942.81
2023-04-07T14:02:49.586Z,100942.78
2023-04-07T14:05:53.440Z,100940.16
2023-04-07T14:08:55.923Z,100940.22
2023-04-07T14:11:59.436Z,100938.84
2023-04-07T14:15:01.894Z,100923.09
2023-04-07T14:18:04.479Z,100935.63
2023-04-07T14:21:08.319Z,100937.38
2023-04-07T14:24:10.878Z,100935.53
2023-04-07T14:27:14.146Z,100930.13
2023-04-07T14:30:16.654Z,100933.53
2023-04-07T14:33:19.178Z,100931.06
2023-04-07T14:36:22.967Z,100926.91
2023-04-07T14:39:26.052Z,100928.41
2023-04-07T14:42:29.731Z,100930.22
2023-04-07T14:45:32.770Z,100925.78
2023-04-07T14:48:35.284Z,100927.97
2023-04-07T14:51:39.459Z,100935.97
2023-04-07T14:54:41.988Z,100924.88
2023-04-07T14:57:44.599Z,100929.47
2023-04-07T15:05:29.176Z,100924.84
2023-04-07T15:08:31.764Z,100923.88
2023-04-07T15:11:34.345Z,100919.41
2023-04-07T15:14:36.875Z,100912.41
2023-04-07T15:17:44.395Z,100915.06
2023-04-07T15:20:48.633Z,100910.63
2023-04-07T15:23:51.476Z,100912.19
2023-04-07T15:26:54.173Z,100912.28
2023-04-07T15:29:56.910Z,100904.50
